sensor_id;sensor_type;location;lat;lon;timestamp;pressure;altitude;pressure_sealevel;temperature;humidity
21960;BME280;11144;43.030;25.108;2023-03-24T00:00:20;99403.03;;;4.95;100.00
21960;BME280;11144;43.030;25.108;2023-03-24T00:01:55;99383.84;;;4.96;100.00
21960;BME280;11144;43.030;25.108;2023-03-24T00:03:29;99376.00;;;4.95;100.00
21960;BME280;11144;43.030;25.108;2023-03-24T00:05:03;99390.78;;;5.00;100.00
21960;BME280;11144;43.030;25.108;2023-03-24T00:06:36;99385.53;;;5.00;100.00
21960;BME280;11144;43.030;25.108;2023-03-24T00:08:10;99388.97;;;5.02;100.00
21960;BME280;11144;43.030;25.108;2023-03-24T00:09:43;99385.47;;;5.03;100.00
21960;BME280;11144;43.030;25.108;2023-03-24T00:11:17;99390.72;;;5.03;100.00
21960;BME280;11144;43.030;25.108;2023-03-24T00:12:52;99380.28;;;5.00;100.00
21960;BME280;11144;43.030;25.108;2023-03-24T00:14:25;99381.19;;;4.98;100.00
21960;BME280;11144;43.030;25.108;2023-03-24T00:16:01;99389.00;;;4.99;100.00
21960;BME280;11144;43.030;25.108;2023-03-24T00:17:34;99387.25;;;5.01;100.00
21960;BME280;11144;43.030;25.108;2023-03-24T00:19:08;99392.50;;;5.01;100.00
21960;BME280;11144;43.030;25.108;2023-03-24T00:20:43;99388.19;;;4.97;100.00
21960;BME280;11144;43.030;25.108;2023-03-24T00:22:17;99385.56;;;4.97;100.00
21960;BME280;11144;43.030;25.108;2023-03-24T00:23:53;99382.19;;;4.89;100.00
21960;BME280;11144;43.030;25.108;2023-03-24T00:25:30;99396.13;;;4.91;100.00
21960;BME280;11144;43.030;25.108;2023-03-24T00:27:08;99392.56;;;4.97;100.00
21960;BME280;11144;43.030;25.108;2023-03-24T00:28:45;99401.31;;;4.94;100.00
21960;BME280;11144;43.030;25.108;2023-03-24T00:30:19;99389.25;;;4.81;100.00
21960;BME280;11144;43.030;25.108;2023-03-24T00:31:52;99385.81;;;4.76;100.00
21960;BME280;11144;43.030;25.108;2023-03-24T00:33:26;99385.00;;;4.73;100.00
21960;BME280;11144;43.030;25.108;2023-03-24T00:34:58;99387.66;;;4.70;100.00
21960;BME280;11144;43.030;25.108;2023-03-24T00:36:32;99387.63;;;4.71;100.00
21960;BME280;11144;43.030;25.108;2023-03-24T00:38:05;99384.16;;;4.69;100.00
21960;BME280;11144;43.030;25.108;2023-03-24T00:39:41;99385.97;;;4.64;100.00
21960;BME280;11144;43.030;25.108;2023-03-24T00:41:15;99376.41;;;4.60;100.00
21960;BME280;11144;43.030;25.108;2023-03-24T00:42:52;99384.31;;;4.57;100.00
21960;BME280;11144;43.030;25.108;2023-03-24T00:44:26;99377.34;;;4.56;100.00
21960;BME280;11144;43.030;25.108;2023-03-24T00:46:00;99382.56;;;4.56;100.00
21960;BME280;11144;43.030;25.108;2023-03-24T00:47:33;99373.88;;;4.54;100.00
21960;BME280;11144;43.030;25.108;2023-03-24T00:49:09;99376.50;;;4.51;100.00
21960;BME280;11144;43.030;25.108;2023-03-24T00:50:44;99372.19;;;4.47;100.00
21960;BME280;11144;43.030;25.108;2023-03-24T00:52:20;99368.81;;;4.36;100.00
21960;BME280;11144;43.030;25.108;2023-03-24T00:53:53;99366.31;;;4.26;100.00
21960;BME280;11144;43.030;25.108;2023-03-24T00:55:29;99359.53;;;4.10;100.00
21960;BME280;11144;43.030;25.108;2023-03-24T00:57:03;99357.78;;;4.09;100.00
21960;BME280;11144;43.030;25.108;2023-03-24T00:58:38;99360.41;;;4.07;100.00
21960;BME280;11144;43.030;25.108;2023-03-24T01:00:12;99338.75;;;3.93;100.00
21960;BME280;11144;43.030;25.108;2023-03-24T01:01:49;99351.75;;;4.02;100.00
21960;BME280;11144;43.030;25.108;2023-03-24T01:03:23;99358.66;;;4.06;100.00
21960;BME280;11144;43.030;25.108;2023-03-24T01:04:59;99355.16;;;4.07;100.00
21960;BME280;11144;43.030;25.108;2023-03-24T01:06:34;99343.84;;;4.07;100.00
21960;BME280;11144;43.030;25.108;2023-03-24T01:08:08;99345.59;;;4.06;100.00
21960;BME280;11144;43.030;25.108;2023-03-24T01:09:42;99350.00;;;4.04;100.00
21960;BME280;11144;43.030;25.108;2023-03-24T01:11:17;99348.22;;;4.06;100.00
21960;BME280;11144;43.030;25.108;2023-03-24T01:12:51;99337.75;;;4.06;100.00
21960;BME280;11144;43.030;25.108;2023-03-24T01:14:25;99335.94;;;4.11;100.00
21960;BME280;11144;43.030;25.108;2023-03-24T01:15:59;99345.53;;;4.14;100.00
21960;BME280;11144;43.030;25.108;2023-03-24T01:17:34;99339.44;;;4.10;100.00
21960;BME280;11144;43.030;25.108;2023-03-24T01:19:08;99339.53;;;4.04;100.00
21960;BME280;11144;43.030;25.108;2023-03-24T01:20:42;99342.06;;;4.09;100.00
21960;BME280;11144;43.030;25.108;2023-03-24T01:22:17;99336.84;;;4.09;100.00
21960;BME280;11144;43.030;25.108;2023-03-24T01:23:52;99337.75;;;4.06;100.00
21960;BME280;11144;43.030;25.108;2023-03-24T01:25:26;99339.44;;;4.10;100.00
21960;BME280;11144;43.030;25.108;2023-03-24T01:27:01;99331.63;;;4.07;100.00
21960;BME280;11144;43.030;25.108;2023-03-24T01:28:35;99339.41;;;4.13;100.00
21960;BME280;11144;43.030;25.108;2023-03-24T01:30:15;99337.66;;;4.15;100.00
21960;BME280;11144;43.030;25.108;2023-03-24T01:31:48;99341.09;;;4.19;100.00
21960;BME280;11144;43.030;25.108;2023-03-24T01:33:22;99340.22;;;4.20;100.00
21960;BME280;11144;43.030;25.108;2023-03-24T01:34:55;99341.06;;;4.23;100.00
21960;BME280;11144;43.030;25.108;2023-03-24T01:36:28;99349.75;;;4.25;100.00
21960;BME280;11144;43.030;25.108;2023-03-24T01:38:04;99348.03;;;4.24;100.00
21960;BME280;11144;43.030;25.108;2023-03-24T01:39:38;99350.63;;;4.26;100.00
21960;BME280;11144;43.030;25.108;2023-03-24T01:41:12;99351.69;;;4.08;100.00
21960;BME280;11144;43.030;25.108;2023-03-24T01:42:44;99350.06;;;3.95;100.00
21960;BME280;11144;43.030;25.108;2023-03-24T01:44:27;99351.06;;;3.82;100.00
21960;BME280;11144;43.030;25.108;2023-03-24T01:46:07;99352.00;;;3.75;100.00
21960;BME280;11144;43.030;25.108;2023-03-24T01:47:40;99348.53;;;3.70;100.00
21960;BME280;11144;43.030;25.108;2023-03-24T01:49:13;99352.06;;;3.66;100.00
21960;BME280;11144;43.030;25.108;2023-03-24T01:50:51;99348.66;;;3.56;100.00
21960;BME280;11144;43.030;25.108;2023-03-24T01:52:29;99354.78;;;3.52;100.00
21960;BME280;11144;43.030;25.108;2023-03-24T01:54:06;99353.06;;;3.51;100.00
21960;BME280;11144;43.030;25.108;2023-03-24T01:55:41;99348.72;;;3.49;100.00
21960;BME280;11144;43.030;25.108;2023-03-24T01:57:20;99353.94;;;3.49;100.00
21960;BME280;11144;43.030;25.108;2023-03-24T01:58:59;99359.19;;;3.49;100.00
21960;BME280;11144;43.030;25.108;2023-03-24T02:00:45;99349.56;;;3.51;100.00
21960;BME280;11144;43.030;25.108;2023-03-24T02:02:52;99359.09;;;3.55;100.00
21960;BME280;11144;43.030;25.108;2023-03-24T02:04:38;99353.88;;;3.55;100.00
21960;BME280;11144;43.030;25.108;2023-03-24T02:06:14;99354.78;;;3.52;100.00
21960;BME280;11144;43.030;25.108;2023-03-24T02:07:54;99358.19;;;3.59;100.00
21960;BME280;11144;43.030;25.108;2023-03-24T02:09:30;99348.63;;;3.58;100.00
21960;BME280;11144;43.030;25.108;2023-03-24T02:11:05;99358.16;;;3.65;100.00
21960;BME280;11144;43.030;25.108;2023-03-24T02:12:46;99359.03;;;3.66;100.00
21960;BME280;11144;43.030;25.108;2023-03-24T02:14:21;99362.47;;;3.72;100.00
21960;BME280;11144;43.030;25.108;2023-03-24T02:17:58;99372.91;;;3.75;100.00
21960;BME280;11144;43.030;25.108;2023-03-24T02:19:57;99378.16;;;3.72;100.00
21960;BME280;11144;43.030;25.108;2023-03-24T02:26:27;99381.59;;;3.77;100.00
21960;BME280;11144;43.030;25.108;2023-03-24T02:28:16;99371.09;;;3.83;100.00
21960;BME280;11144;43.030;25.108;2023-03-24T02:32:10;99376.25;;;3.89;100.00
21960;BME280;11144;43.030;25.108;2023-03-24T02:34:15;99388.44;;;3.93;100.00
21960;BME280;11144;43.030;25.108;2023-03-24T02:36:17;99381.44;;;3.95;100.00
21960;BME280;11144;43.030;25.108;2023-03-24T02:38:29;99384.88;;;4.00;100.00
21960;BME280;11144;43.030;25.108;2023-03-24T02:40:17;99384.91;;;3.97;100.00
21960;BME280;11144;43.030;25.108;2023-03-24T02:41:59;99388.38;;;3.96;100.00
21960;BME280;11144;43.030;25.108;2023-03-24T02:43:42;99385.00;;;3.85;100.00
21960;BME280;11144;43.030;25.108;2023-03-24T02:45:25;99368.53;;;3.76;100.00
21960;BME280;11144;43.030;25.108;2023-03-24T02:47:02;99378.97;;;3.76;100.00
21960;BME280;11144;43.030;25.108;2023-03-24T02:48:42;99383.28;;;3.81;100.00
21960;BME280;11144;43.030;25.108;2023-03-24T02:50:22;99372.78;;;3.87;100.00
21960;BME280;11144;43.030;25.108;2023-03-24T02:52:01;99359.75;;;3.84;100.00
21960;BME280;11144;43.030;25.108;2023-03-24T02:53:45;99358.94;;;3.79;100.00
21960;BME280;11144;43.030;25.108;2023-03-24T02:55:33;99358.84;;;3.85;100.00
21960;BME280;11144;43.030;25.108;2023-03-24T02:57:10;99360.63;;;3.83;100.00
21960;BME280;11144;43.030;25.108;2023-03-24T02:59:05;99346.66;;;3.84;100.00
21960;BME280;11144;43.030;25.108;2023-03-24T03:00:44;99339.72;;;3.83;100.00
21960;BME280;11144;43.030;25.108;2023-03-24T03:02:44;99340.56;;;3.84;100.00
21960;BME280;11144;43.030;25.108;2023-03-24T03:04:24;99348.41;;;3.85;100.00
21960;BME280;11144;43.030;25.108;2023-03-24T03:06:02;99346.66;;;3.87;100.00
21960;BME280;11144;43.030;25.108;2023-03-24T03:07:38;99343.16;;;3.85;100.00
21960;BME280;11144;43.030;25.108;2023-03-24T03:09:15;99350.19;;;3.83;100.00
21960;BME280;11144;43.030;25.108;2023-03-24T03:10:52;99346.66;;;3.84;100.00
21960;BME280;11144;43.030;25.108;2023-03-24T03:12:30;99344.94;;;3.86;100.00
21960;BME280;11144;43.030;25.108;2023-03-24T03:14:08;99353.59;;;3.88;100.00
21960;BME280;11144;43.030;25.108;2023-03-24T03:15:45;99348.38;;;3.88;100.00
21960;BME280;11144;43.030;25.108;2023-03-24T03:17:23;99351.88;;;3.87;100.00
21960;BME280;11144;43.030;25.108;2023-03-24T03:19:00;99350.16;;;3.86;100.00
21960;BME280;11144;43.030;25.108;2023-03-24T03:20:38;99341.44;;;3.84;100.00
21960;BME280;11144;43.030;25.108;2023-03-24T03:22:15;99337.13;;;3.79;100.00
21960;BME280;11144;43.030;25.108;2023-03-24T03:23:54;99338.81;;;3.84;100.00
21960;BME280;11144;43.030;25.108;2023-03-24T03:25:31;99344.94;;;3.83;100.00
21960;BME280;11144;43.030;25.108;2023-03-24T03:27:11;99336.22;;;3.81;100.00
21960;BME280;11144;43.030;25.108;2023-03-24T03:28:50;99336.31;;;3.72;100.00
21960;BME280;11144;43.030;25.108;2023-03-24T03:30:34;99329.41;;;3.68;100.00
21960;BME280;11144;43.030;25.108;2023-03-24T03:32:13;99325.94;;;3.63;100.00
21960;BME280;11144;43.030;25.108;2023-03-24T03:33:54;99329.44;;;3.62;100.00
21960;BME280;11144;43.030;25.108;2023-03-24T03:35:34;99327.75;;;3.55;100.00
21960;BME280;11144;43.030;25.108;2023-03-24T03:37:12;99319.13;;;3.44;100.00
21960;BME280;11144;43.030;25.108;2023-03-24T03:38:53;99321.84;;;3.33;100.00
21960;BME280;11144;43.030;25.108;2023-03-24T03:40:31;99324.47;;;3.29;100.00
21960;BME280;11144;43.030;25.108;2023-03-24T03:42:17;99331.41;;;3.30;100.00
21960;BME280;11144;43.030;25.108;2023-03-24T03:43:51;99332.28;;;3.30;100.00
21960;BME280;11144;43.030;25.108;2023-03-24T03:45:25;99334.88;;;3.35;100.00
21960;BME280;11144;43.030;25.108;2023-03-24T03:46:59;99325.28;;;3.37;100.00
21960;BME280;11144;43.030;25.108;2023-03-24T03:48:43;99327.94;;;3.34;100.00
21960;BME280;11144;43.030;25.108;2023-03-24T03:50:17;99340.13;;;3.35;100.00
21960;BME280;11144;43.030;25.108;2023-03-24T03:51:51;99343.63;;;3.31;100.00
21960;BME280;11144;43.030;25.108;2023-03-24T03:53:27;99343.63;;;3.31;100.00
21960;BME280;11144;43.030;25.108;2023-03-24T03:55:04;99354.06;;;3.31;100.00
21960;BME280;11144;43.030;25.108;2023-03-24T03:56:39;99355.78;;;3.35;100.00
21960;BME280;11144;43.030;25.108;2023-03-24T03:58:36;99360.94;;;3.41;100.00
21960;BME280;11144;43.030;25.108;2023-03-24T04:00:14;99353.97;;;3.43;100.00
21960;BME280;11144;43.030;25.108;2023-03-24T04:02:12;99343.53;;;3.43;100.00
21960;BME280;11144;43.030;25.108;2023-03-24T04:03:58;99341.78;;;3.45;100.00
21960;BME280;11144;43.030;25.108;2023-03-24T04:06:00;99348.66;;;3.52;100.00
21960;BME280;11144;43.030;25.108;2023-03-24T04:07:46;99342.56;;;3.56;100.00
21960;BME280;11144;43.030;25.108;2023-03-24T04:09:56;99336.47;;;3.57;100.00
21960;BME280;11144;43.030;25.108;2023-03-24T04:13:38;99338.97;;;3.69;100.00
21960;BME280;11144;43.030;25.108;2023-03-24T04:15:34;99335.47;;;3.70;100.00
21960;BME280;11144;43.030;25.108;2023-03-24T04:17:27;99336.31;;;3.75;100.00
21960;BME280;11144;43.030;25.108;2023-03-24T04:19:25;99346.72;;;3.78;100.00
21960;BME280;11144;43.030;25.108;2023-03-24T04:21:37;99346.66;;;3.84;100.00
21960;BME280;11144;43.030;25.108;2023-03-24T04:23:24;99350.09;;;3.91;100.00
21960;BME280;11144;43.030;25.108;2023-03-24T04:25:07;99350.09;;;3.89;100.00
21960;BME280;11144;43.030;25.108;2023-03-24T04:26:47;99355.31;;;3.92;100.00
21960;BME280;11144;43.030;25.108;2023-03-24T04:28:33;99344.03;;;3.86;100.00
21960;BME280;11144;43.030;25.108;2023-03-24T04:30:15;99353.56;;;3.96;100.00
21960;BME280;11144;43.030;25.108;2023-03-24T04:31:58;99346.63;;;3.90;100.00
21960;BME280;11144;43.030;25.108;2023-03-24T04:33:38;99360.50;;;3.98;100.00
21960;BME280;11144;43.030;25.108;2023-03-24T04:35:20;99356.19;;;3.91;100.00
21960;BME280;11144;43.030;25.108;2023-03-24T04:37:15;99371.00;;;3.94;100.00
21960;BME280;11144;43.030;25.108;2023-03-24T04:39:02;99371.91;;;3.88;100.00
21960;BME280;11144;43.030;25.108;2023-03-24T04:40:44;99365.84;;;3.85;100.00
21960;BME280;11144;43.030;25.108;2023-03-24T04:42:23;99369.31;;;3.85;100.00
21960;BME280;11144;43.030;25.108;2023-03-24T04:43:58;99366.72;;;3.84;100.00
21960;BME280;11144;43.030;25.108;2023-03-24T04:45:35;99360.66;;;3.80;100.00
21960;BME280;11144;43.030;25.108;2023-03-24T04:47:29;99367.59;;;3.83;100.00
21960;BME280;11144;43.030;25.108;2023-03-24T04:49:27;99373.69;;;3.85;100.00
21960;BME280;11144;43.030;25.108;2023-03-24T04:51:01;99379.75;;;3.88;100.00
21960;BME280;11144;43.030;25.108;2023-03-24T04:52:56;99376.25;;;3.89;100.00
21960;BME280;11144;43.030;25.108;2023-03-24T04:54:29;99383.22;;;3.90;100.00
21960;BME280;11144;43.030;25.108;2023-03-24T04:56:26;99374.50;;;3.91;100.00
21960;BME280;11144;43.030;25.108;2023-03-24T04:58:08;99384.97;;;3.91;100.00
21960;BME280;11144;43.030;25.108;2023-03-24T04:59:42;99387.56;;;3.96;100.00
21960;BME280;11144;43.030;25.108;2023-03-24T05:01:17;99385.78;;;3.96;100.00
21960;BME280;11144;43.030;25.108;2023-03-24T05:03:13;99393.63;;;3.95;100.00
21960;BME280;11144;43.030;25.108;2023-03-24T05:04:47;99384.97;;;3.91;100.00
21960;BME280;11144;43.030;25.108;2023-03-24T05:06:31;99392.78;;;3.96;100.00
21960;BME280;11144;43.030;25.108;2023-03-24T05:08:05;99390.16;;;3.97;100.00
21960;BME280;11144;43.030;25.108;2023-03-24T05:09:39;99390.09;;;4.00;100.00
21960;BME280;11144;43.030;25.108;2023-03-24T05:11:13;99401.38;;;4.08;100.00
21960;BME280;11144;43.030;25.108;2023-03-24T05:12:53;99403.91;;;4.19;100.00
21960;BME280;11144;43.030;25.108;2023-03-24T05:14:46;99405.63;;;4.18;100.00
21960;BME280;11144;43.030;25.108;2023-03-24T05:16:21;99402.09;;;4.22;100.00
21960;BME280;11144;43.030;25.108;2023-03-24T05:18:02;99409.94;;;4.25;100.00
21960;BME280;11144;43.030;25.108;2023-03-24T05:19:36;99400.34;;;4.24;100.00
21960;BME280;11144;43.030;25.108;2023-03-24T05:21:09;99408.16;;;4.30;100.00
21960;BME280;11144;43.030;25.108;2023-03-24T05:22:42;99413.25;;;4.42;100.00
21960;BME280;11144;43.030;25.108;2023-03-24T05:24:15;99408.81;;;4.50;100.00
21960;BME280;11144;43.030;25.108;2023-03-24T05:25:48;99416.63;;;4.56;100.00
21960;BME280;11144;43.030;25.108;2023-03-24T05:27:25;99407.81;;;4.63;100.00
21960;BME280;11144;43.030;25.108;2023-03-24T05:28:59;99420.78;;;4.72;100.00
21960;BME280;11144;43.030;25.108;2023-03-24T05:30:32;99405.09;;;4.69;100.00
21960;BME280;11144;43.030;25.108;2023-03-24T05:32:17;99400.72;;;4.73;100.00
21960;BME280;11144;43.030;25.108;2023-03-24T05:33:50;99415.53;;;4.72;100.00
21960;BME280;11144;43.030;25.108;2023-03-24T05:35:25;99413.84;;;4.68;100.00
21960;BME280;11144;43.030;25.108;2023-03-24T05:36:58;99405.94;;;4.74;100.00
21960;BME280;11144;43.030;25.108;2023-03-24T05:38:32;99414.63;;;4.78;100.00
21960;BME280;11144;43.030;25.108;2023-03-24T05:40:06;99418.91;;;4.83;100.00
21960;BME280;11144;43.030;25.108;2023-03-24T05:41:50;99408.47;;;4.80;100.00
21960;BME280;11144;43.030;25.108;2023-03-24T05:43:24;99417.97;;;4.89;100.00
21960;BME280;11144;43.030;25.108;2023-03-24T05:45:08;99413.44;;;5.04;100.00
21960;BME280;11144;43.030;25.108;2023-03-24T05:46:42;99414.19;;;5.12;100.00
21960;BME280;11144;43.030;25.108;2023-03-24T05:48:17;99412.28;;;5.25;100.00
21960;BME280;11144;43.030;25.108;2023-03-24T05:50:07;99412.09;;;5.38;100.00
21960;BME280;11144;43.030;25.108;2023-03-24T05:51:41;99413.59;;;5.54;100.00
21960;BME280;11144;43.030;25.108;2023-03-24T05:53:14;99410.91;;;5.60;100.00
21960;BME280;11144;43.030;25.108;2023-03-24T05:55:08;99403.03;;;5.59;100.00
21960;BME280;11144;43.030;25.108;2023-03-24T05:56:43;99405.56;;;5.66;100.00
21960;BME280;11144;43.030;25.108;2023-03-24T05:58:36;99406.44;;;5.65;100.00
21960;BME280;11144;43.030;25.108;2023-03-24T06:00:12;99413.34;;;5.71;100.00
21960;BME280;11144;43.030;25.108;2023-03-24T06:02:08;99417.59;;;5.82;100.00
21960;BME280;11144;43.030;25.108;2023-03-24T06:04:04;99418.38;;;5.87;100.00
21960;BME280;11144;43.030;25.108;2023-03-24T06:05:37;99419.19;;;5.92;100.00
21960;BME280;11144;43.030;25.108;2023-03-24T06:07:11;99424.28;;;6.01;100.00
21960;BME280;11144;43.030;25.108;2023-03-24T06:08:47;99424.44;;;5.92;100.00
21960;BME280;11144;43.030;25.108;2023-03-24T06:10:21;99413.22;;;5.83;100.00
21960;BME280;11144;43.030;25.108;2023-03-24T06:11:57;99414.81;;;5.90;100.00
21960;BME280;11144;43.030;25.108;2023-03-24T06:13:33;99413.78;;;6.01;100.00
21960;BME280;11144;43.030;25.108;2023-03-24T06:15:08;99418.84;;;6.10;100.00
21960;BME280;11144;43.030;25.108;2023-03-24T06:16:42;99416.06;;;6.21;100.00
21960;BME280;11144;43.030;25.108;2023-03-24T06:18:18;99425.28;;;6.44;100.00
21960;BME280;11144;43.030;25.108;2023-03-24T06:19:54;99421.41;;;6.63;100.00
21960;BME280;11144;43.030;25.108;2023-03-24T06:21:57;99418.25;;;6.90;100.00
21960;BME280;11144;43.030;25.108;2023-03-24T06:23:35;99415.22;;;7.10;100.00
21960;BME280;11144;43.030;25.108;2023-03-24T06:25:13;99413.16;;;7.26;100.00
21960;BME280;11144;43.030;25.108;2023-03-24T06:26:57;99412.13;;;7.33;100.00
21960;BME280;11144;43.030;25.108;2023-03-24T06:28:37;99409.97;;;7.50;100.00
21960;BME280;11144;43.030;25.108;2023-03-24T06:30:17;99414.50;;;7.81;100.00
21960;BME280;11144;43.030;25.108;2023-03-24T06:31:51;99410.06;;;8.20;100.00
21960;BME280;11144;43.030;25.108;2023-03-24T06:33:24;99414.38;;;8.57;100.00
21960;BME280;11144;43.030;25.108;2023-03-24T06:34:59;99418.78;;;8.89;100.00
21960;BME280;11144;43.030;25.108;2023-03-24T06:36:55;99413.19;;;9.30;100.00
21960;BME280;11144;43.030;25.108;2023-03-24T06:38:29;99418.41;;;9.60;100.00
21960;BME280;11144;43.030;25.108;2023-03-24T06:40:03;99419.97;;;9.95;100.00
21960;BME280;11144;43.030;25.108;2023-03-24T06:41:46;99404.34;;;10.41;100.00
21960;BME280;11144;43.030;25.108;2023-03-24T06:43:19;99416.25;;;11.03;100.00
21960;BME280;11144;43.030;25.108;2023-03-24T06:44:53;99410.00;;;11.52;100.00
21960;BME280;11144;43.030;25.108;2023-03-24T06:46:26;99411.66;;;11.99;100.00
21960;BME280;11144;43.030;25.108;2023-03-24T06:48:00;99410.91;;;12.38;100.00
21960;BME280;11144;43.030;25.108;2023-03-24T06:49:33;99418.88;;;12.58;100.00
21960;BME280;11144;43.030;25.108;2023-03-24T06:51:09;99407.56;;;12.75;100.00
21960;BME280;11144;43.030;25.108;2023-03-24T06:52:44;99404.59;;;13.02;100.00
21960;BME280;11144;43.030;25.108;2023-03-24T06:54:20;99408.69;;;12.89;100.00
21960;BME280;11144;43.030;25.108;2023-03-24T06:55:54;99403.22;;;12.92;100.00
21960;BME280;11144;43.030;25.108;2023-03-24T06:57:30;99404.66;;;13.21;100.00
21960;BME280;11144;43.030;25.108;2023-03-24T06:59:21;99399.38;;;13.58;100.00
21960;BME280;11144;43.030;25.108;2023-03-24T07:00:55;99396.41;;;13.83;100.00
21960;BME280;11144;43.030;25.108;2023-03-24T07:02:31;99399.84;;;13.85;100.00
21960;BME280;11144;43.030;25.108;2023-03-24T07:04:06;99393.91;;;13.80;100.00
21960;BME280;11144;43.030;25.108;2023-03-24T07:06:00;99388.72;;;13.39;100.00
21960;BME280;11144;43.030;25.108;2023-03-24T07:07:35;99391.50;;;12.98;100.00
21960;BME280;11144;43.030;25.108;2023-03-24T07:09:42;99388.66;;;13.02;100.00
21960;BME280;11144;43.030;25.108;2023-03-24T07:11:16;99397.59;;;13.20;100.00
21960;BME280;11144;43.030;25.108;2023-03-24T07:12:57;99378.63;;;13.09;100.00
21960;BME280;11144;43.030;25.108;2023-03-24T07:14:30;99395.28;;;13.12;100.00
21960;BME280;11144;43.030;25.108;2023-03-24T07:16:05;99392.25;;;13.01;100.00
21960;BME280;11144;43.030;25.108;2023-03-24T07:17:42;99395.69;;;13.03;100.00
21960;BME280;11144;43.030;25.108;2023-03-24T07:19:35;99394.50;;;12.90;100.00
21960;BME280;11144;43.030;25.108;2023-03-24T07:21:44;99386.53;;;13.10;100.00
21960;BME280;11144;43.030;25.108;2023-03-24T07:23:27;99384.31;;;13.20;100.00
21960;BME280;11144;43.030;25.108;2023-03-24T07:25:07;99381.38;;;13.44;100.00
21960;BME280;11144;43.030;25.108;2023-03-24T07:27:04;99380.34;;;13.48;100.00
21960;BME280;11144;43.030;25.108;2023-03-24T07:28:40;99380.97;;;13.53;100.00
21960;BME280;11144;43.030;25.108;2023-03-24T07:30:14;99377.94;;;13.80;100.00
21960;BME280;11144;43.030;25.108;2023-03-24T07:31:51;99383.66;;;14.08;100.00
21960;BME280;11144;43.030;25.108;2023-03-24T07:33:25;99385.94;;;14.34;100.00
21960;BME280;11144;43.030;25.108;2023-03-24T07:35:00;99373.72;;;14.30;100.00
21960;BME280;11144;43.030;25.108;2023-03-24T07:36:33;99365.44;;;14.53;100.00
21960;BME280;11144;43.030;25.108;2023-03-24T07:38:09;99371.75;;;14.84;100.00
21960;BME280;11144;43.030;25.108;2023-03-24T07:39:44;99374.59;;;15.14;100.00
21960;BME280;11144;43.030;25.108;2023-03-24T07:41:17;99372.03;;;15.28;100.00
21960;BME280;11144;43.030;25.108;2023-03-24T07:42:58;99368.00;;;15.69;100.00
21960;BME280;11144;43.030;25.108;2023-03-24T07:45:08;99359.75;;;15.89;100.00
21960;BME280;11144;43.030;25.108;2023-03-24T07:46:42;99366.97;;;16.18;100.00
21960;BME280;11144;43.030;25.108;2023-03-24T07:48:15;99359.16;;;16.44;100.00
21960;BME280;11144;43.030;25.108;2023-03-24T07:49:48;99362.03;;;16.71;100.00
21960;BME280;11144;43.030;25.108;2023-03-24T07:51:22;99356.91;;;16.52;100.00
21960;BME280;11144;43.030;25.108;2023-03-24T07:53:04;99353.34;;;16.81;100.00
21960;BME280;11144;43.030;25.108;2023-03-24T07:54:41;99347.16;;;16.95;100.00
21960;BME280;11144;43.030;25.108;2023-03-24T07:56:23;99346.00;;;16.71;100.00
21960;BME280;11144;43.030;25.108;2023-03-24T07:57:59;99342.53;;;16.69;100.00
21960;BME280;11144;43.030;25.108;2023-03-24T07:59:33;99344.31;;;16.98;100.00
21960;BME280;11144;43.030;25.108;2023-03-24T08:01:11;99343.94;;;17.18;100.00
21960;BME280;11144;43.030;25.108;2023-03-24T08:02:49;99335.94;;;17.46;100.00
21960;BME280;11144;43.030;25.108;2023-03-24T08:05:02;99332.75;;;17.68;100.00
21960;BME280;11144;43.030;25.108;2023-03-24T08:06:43;99332.91;;;18.05;100.00
21960;BME280;11144;43.030;25.108;2023-03-24T08:08:16;99328.72;;;18.01;100.00
21960;BME280;11144;43.030;25.108;2023-03-24T08:09:49;99332.88;;;18.19;100.00
21960;BME280;11144;43.030;25.108;2023-03-24T08:11:23;99319.81;;;18.54;100.00
21960;BME280;11144;43.030;25.108;2023-03-24T08:12:58;99320.81;;;18.65;100.00
21960;BME280;11144;43.030;25.108;2023-03-24T08:14:31;99324.47;;;18.89;100.00
21960;BME280;11144;43.030;25.108;2023-03-24T08:16:05;99320.50;;;19.07;100.00
21960;BME280;11144;43.030;25.108;2023-03-24T08:17:38;99326.44;;;19.25;100.00
21960;BME280;11144;43.030;25.108;2023-03-24T08:19:12;99317.19;;;18.91;100.00
21960;BME280;11144;43.030;25.108;2023-03-24T08:20:45;99316.84;;;19.08;100.00
21960;BME280;11144;43.030;25.108;2023-03-24T08:22:19;99303.44;;;19.21;100.00
21960;BME280;11144;43.030;25.108;2023-03-24T08:23:52;99304.06;;;19.49;100.00
21960;BME280;11144;43.030;25.108;2023-03-24T08:25:26;99302.84;;;19.30;100.00
21960;BME280;11144;43.030;25.108;2023-03-24T08:27:00;99304.44;;;19.07;100.00
21960;BME280;11144;43.030;25.108;2023-03-24T08:28:37;99303.91;;;19.02;100.00
21960;BME280;11144;43.030;25.108;2023-03-24T08:30:14;99298.09;;;19.08;100.00
21960;BME280;11144;43.030;25.108;2023-03-24T08:31:47;99309.13;;;19.16;100.00
21960;BME280;11144;43.030;25.108;2023-03-24T08:33:21;99298.78;;;19.24;100.00
21960;BME280;11144;43.030;25.108;2023-03-24T08:34:56;99293.88;;;19.54;100.00
21960;BME280;11144;43.030;25.108;2023-03-24T08:36:30;99295.00;;;19.75;100.00
21960;BME280;11144;43.030;25.108;2023-03-24T08:38:03;99284.34;;;19.97;100.00
21960;BME280;11144;43.030;25.108;2023-03-24T08:39:37;99288.31;;;20.28;100.00
21960;BME280;11144;43.030;25.108;2023-03-24T08:41:11;99287.06;;;20.56;100.00
21960;BME280;11144;43.030;25.108;2023-03-24T08:42:47;99282.75;;;20.88;100.00
21960;BME280;11144;43.030;25.108;2023-03-24T08:44:21;99274.91;;;20.74;100.00
21960;BME280;11144;43.030;25.108;2023-03-24T08:45:54;99283.00;;;20.85;100.00
21960;BME280;11144;43.030;25.108;2023-03-24T08:47:28;99276.28;;;20.90;100.00